Time;durP1;ratioP1;P1;durP2;ratioP2;P2;SDS_P1;SDS_P2;PMS_P1;PMS_P2;Temp;Humidity;BMP_temperature;BMP_pressure;BME280_temperature;BME280_humidity;BME280_pressure;Samples;Min_cycle;Max_cycle;Signal;HPM_P1;HPM_P2
2022/10/07 00:01:16;;;;;;;;;;;13.10;99.90;;;;;;5100208;28;19972;-75
2022/10/07 00:03:41;;;;;;;;;;;13.30;99.90;;;;;;5494600;22;20864;-74
2022/10/07 00:06:12;;;;;;;;;;;13.40;99.90;;;;;;5032167;28;19916;-71
2022/10/07 00:08:39;;;;;;;;;;;13.50;99.90;;;;;;5042088;22;19928;-71
2022/10/07 00:11:05;;;;;;;;;;;13.70;99.90;;;;;;5040157;28;20510;-70
2022/10/07 00:13:31;;;;;;;;;;;13.70;99.90;;;;;;5032957;28;19917;-70
2022/10/07 00:16:26;;;;;;;;;;;13.90;99.90;;;;;;5028430;28;20265;-70
2022/10/07 00:18:56;;;;;;;;;;;14.10;99.90;;;;;;5014547;28;19932;-71
2022/10/07 00:21:22;;;;;;;;;;;14.20;99.90;;;;;;5053170;28;20544;-70
2022/10/07 00:23:47;;;;;;;;;;;14.30;99.90;;;;;;5036727;28;20006;-70
2022/10/07 00:26:18;;;;;;;;;;;14.50;99.90;;;;;;5023008;28;20303;-71
2022/10/07 00:28:44;;;;;;;;;;;14.50;99.90;;;;;;5045443;28;20062;-71
2022/10/07 00:31:17;;;;;;;;;;;14.60;99.90;;;;;;5017058;28;20011;-71
2022/10/07 00:33:43;;;;;;;;;;;14.70;99.90;;;;;;5039305;28;19916;-71
2022/10/07 00:36:09;;;;;;;;;;;14.70;99.90;;;;;;5034375;28;20295;-70
2022/10/07 00:38:35;;;;;;;;;;;14.80;99.90;;;;;;5031607;28;20348;-70
2022/10/07 00:41:00;;;;;;;;;;;14.80;99.90;;;;;;5019352;28;19935;-70
2022/10/07 00:43:28;;;;;;;;;;;14.80;99.90;;;;;;5020964;28;19925;-70
2022/10/07 00:45:56;;;;;;;;;;;14.70;99.90;;;;;;5039660;28;19917;-70
2022/10/07 00:48:23;;;;;;;;;;;14.70;99.90;;;;;;5057024;28;20298;-70
2022/10/07 00:50:50;;;;;;;;;;;14.60;99.90;;;;;;5044474;28;20335;-71
2022/10/07 00:53:16;;;;;;;;;;;14.60;99.90;;;;;;5011596;28;19959;-70
2022/10/07 00:55:41;;;;;;;;;;;14.50;99.90;;;;;;5056080;28;20327;-70
2022/10/07 00:58:08;;;;;;;;;;;14.50;99.90;;;;;;5036257;28;19932;-70
2022/10/07 01:00:38;;;;;;;;;;;14.40;99.90;;;;;;5015439;28;19960;-71
2022/10/07 01:03:03;;;;;;;;;;;14.30;99.90;;;;;;5025251;28;19917;-71
2022/10/07 01:05:29;;;;;;;;;;;14.20;99.90;;;;;;5053089;28;19924;-70
2022/10/07 01:07:55;;;;;;;;;;;14.20;99.90;;;;;;5035154;28;19917;-70
2022/10/07 01:10:21;;;;;;;;;;;14.20;99.90;;;;;;5036043;28;19916;-71
2022/10/07 01:13:05;;;;;;;;;;;14.10;99.90;;;;;;5036809;28;19925;-70
2022/10/07 01:15:34;;;;;;;;;;;14.10;99.90;;;;;;5038422;28;19924;-71
2022/10/07 01:18:18;;;;;;;;;;;14.20;99.90;;;;;;5051718;28;20386;-70
2022/10/07 01:20:53;;;;;;;;;;;14.20;99.90;;;;;;5027942;28;19919;-70
2022/10/07 01:23:18;;;;;;;;;;;14.20;99.90;;;;;;5025763;28;19916;-70
2022/10/07 01:25:49;;;;;;;;;;;14.20;99.90;;;;;;5054946;28;19924;-70
2022/10/07 01:28:18;;;;;;;;;;;14.20;99.90;;;;;;5029282;28;20332;-70
2022/10/07 01:30:47;;;;;;;;;;;14.20;99.90;;;;;;5034985;28;19970;-69
2022/10/07 01:33:15;;;;;;;;;;;14.10;99.90;;;;;;5026329;28;19988;-69
2022/10/07 01:35:42;;;;;;;;;;;14.10;99.90;;;;;;5017331;28;19917;-70
2022/10/07 01:38:09;;;;;;;;;;;14.10;99.90;;;;;;5016628;28;19960;-70
2022/10/07 01:40:39;;;;;;;;;;;14.10;99.90;;;;;;5029582;28;20461;-70
2022/10/07 01:43:04;;;;;;;;;;;14.00;99.90;;;;;;5039300;28;20018;-70
2022/10/07 01:45:31;;;;;;;;;;;14.00;99.90;;;;;;5044495;28;20019;-70
2022/10/07 01:47:58;;;;;;;;;;;13.90;99.90;;;;;;5040689;28;19936;-70
2022/10/07 01:50:25;;;;;;;;;;;14.00;99.90;;;;;;5020502;28;20442;-70
2022/10/07 01:53:02;;;;;;;;;;;13.90;99.90;;;;;;5028963;28;19996;-70
2022/10/07 01:55:37;;;;;;;;;;;13.90;99.90;;;;;;5016368;28;19913;-70
2022/10/07 01:58:14;;;;;;;;;;;13.80;99.90;;;;;;5022985;28;20155;-70
2022/10/07 02:00:46;;;;;;;;;;;13.80;99.90;;;;;;5044041;28;19917;-70
2022/10/07 02:03:30;;;;;;;;;;;13.70;99.90;;;;;;5051487;28;19953;-70
2022/10/07 02:06:16;;;;;;;;;;;13.70;99.90;;;;;;5057121;28;19916;-70
2022/10/07 02:08:47;;;;;;;;;;;13.60;99.90;;;;;;5058874;28;19929;-70
2022/10/07 02:11:13;;;;;;;;;;;13.50;99.90;;;;;;5034552;28;19926;-71
2022/10/07 02:13:42;;;;;;;;;;;13.40;99.90;;;;;;5027244;28;19917;-70
2022/10/07 02:16:15;;;;;;;;;;;13.30;99.90;;;;;;5060187;28;19924;-71
2022/10/07 02:18:43;;;;;;;;;;;13.30;99.90;;;;;;5029011;28;20029;-70
2022/10/07 02:21:09;;;;;;;;;;;13.40;99.90;;;;;;5050528;28;19917;-70
2022/10/07 02:23:36;;;;;;;;;;;13.40;99.90;;;;;;5048332;28;19917;-71
2022/10/07 02:26:03;;;;;;;;;;;13.50;99.90;;;;;;5020916;28;20438;-71
2022/10/07 02:28:29;;;;;;;;;;;13.50;99.90;;;;;;5039325;28;19998;-71
2022/10/07 02:30:58;;;;;;;;;;;13.50;99.90;;;;;;5042855;28;19943;-70
2022/10/07 02:33:25;;;;;;;;;;;13.60;99.90;;;;;;5059821;28;19927;-70
2022/10/07 02:35:53;;;;;;;;;;;13.60;99.90;;;;;;5060658;28;19962;-70
2022/10/07 02:38:20;;;;;;;;;;;13.70;99.90;;;;;;5029207;28;19927;-70
2022/10/07 02:41:05;;;;;;;;;;;13.70;99.90;;;;;;5020990;28;19924;-70
2022/10/07 02:43:45;;;;;;;;;;;13.80;99.90;;;;;;5047137;28;19924;-70
2022/10/07 02:46:14;;;;;;;;;;;13.80;99.90;;;;;;5053055;28;19924;-70
2022/10/07 02:48:44;;;;;;;;;;;13.80;99.90;;;;;;5055629;28;19913;-69
2022/10/07 02:51:17;;;;;;;;;;;13.80;99.90;;;;;;5050299;28;19923;-70
2022/10/07 02:53:44;;;;;;;;;;;13.90;99.90;;;;;;5020652;28;20064;-70
2022/10/07 02:56:09;;;;;;;;;;;13.90;99.90;;;;;;5021052;28;20003;-70
2022/10/07 02:58:36;;;;;;;;;;;13.80;99.90;;;;;;5020563;28;20464;-70
2022/10/07 03:01:03;;;;;;;;;;;13.80;99.90;;;;;;5039598;28;20015;-70
2022/10/07 03:03:29;;;;;;;;;;;13.70;99.90;;;;;;5055831;28;19921;-70
2022/10/07 03:05:54;;;;;;;;;;;13.50;99.90;;;;;;5055800;28;19928;-70
2022/10/07 03:08:20;;;;;;;;;;;13.40;99.90;;;;;;5040371;28;19970;-71
2022/10/07 03:10:46;;;;;;;;;;;13.40;99.90;;;;;;5037511;28;20368;-70
2022/10/07 03:13:14;;;;;;;;;;;13.30;99.90;;;;;;5038873;28;19977;-70
2022/10/07 03:15:40;;;;;;;;;;;13.40;99.90;;;;;;5049082;28;19948;-70
2022/10/07 03:18:06;;;;;;;;;;;13.40;99.90;;;;;;5046071;28;20035;-71
2022/10/07 03:20:31;;;;;;;;;;;13.40;99.90;;;;;;5039843;28;19992;-71
2022/10/07 03:23:00;;;;;;;;;;;13.50;99.90;;;;;;5049771;28;19912;-71
2022/10/07 03:25:26;;;;;;;;;;;13.50;99.90;;;;;;5053311;28;19982;-70
2022/10/07 03:27:53;;;;;;;;;;;13.50;99.90;;;;;;5054523;28;19916;-70
2022/10/07 03:30:21;;;;;;;;;;;13.50;99.90;;;;;;5058425;28;20399;-71
2022/10/07 03:32:48;;;;;;;;;;;13.50;99.90;;;;;;5058564;28;19981;-70
2022/10/07 03:35:14;;;;;;;;;;;13.60;99.90;;;;;;5054356;28;19976;-70
2022/10/07 03:37:39;;;;;;;;;;;13.60;99.90;;;;;;5020399;28;20410;-69
2022/10/07 03:40:05;;;;;;;;;;;13.60;99.90;;;;;;5034728;28;19939;-70
2022/10/07 03:42:30;;;;;;;;;;;13.70;99.90;;;;;;5057791;28;20011;-70
2022/10/07 03:44:56;;;;;;;;;;;13.70;99.90;;;;;;5045749;28;20263;-70
2022/10/07 03:47:21;;;;;;;;;;;13.80;99.90;;;;;;5052649;28;20149;-70
2022/10/07 03:49:47;;;;;;;;;;;13.90;99.90;;;;;;5040096;28;19970;-70
2022/10/07 03:52:12;;;;;;;;;;;13.90;99.90;;;;;;5043082;28;19918;-71
2022/10/07 03:54:38;;;;;;;;;;;14.00;99.90;;;;;;5046601;28;20011;-70
2022/10/07 03:57:48;;;;;;;;;;;13.90;99.90;;;;;;5047289;28;20004;-70
2022/10/07 03:59:52;;;;;;;;;;;14.00;99.90;;;;;;5046572;28;20086;-70
2022/10/07 04:02:19;;;;;;;;;;;14.00;99.90;;;;;;5053856;28;19912;-70
2022/10/07 04:04:45;;;;;;;;;;;13.80;99.90;;;;;;5067115;28;19924;-71
2022/10/07 04:07:10;;;;;;;;;;;13.70;99.90;;;;;;5066972;28;19916;-70
2022/10/07 04:09:36;;;;;;;;;;;13.60;99.90;;;;;;5054249;28;19925;-70
2022/10/07 04:12:02;;;;;;;;;;;13.60;99.90;;;;;;5039767;28;19920;-70
2022/10/07 04:14:28;;;;;;;;;;;13.40;99.90;;;;;;5039067;28;19917;-70
2022/10/07 04:16:53;;;;;;;;;;;13.30;99.90;;;;;;5065298;28;19916;-70
2022/10/07 04:19:19;;;;;;;;;;;13.10;99.90;;;;;;5051397;28;20236;-70
2022/10/07 04:21:44;;;;;;;;;;;13.00;99.90;;;;;;5040874;28;19917;-70
2022/10/07 04:24:10;;;;;;;;;;;12.90;99.90;;;;;;5047027;28;20171;-71
2022/10/07 04:26:35;;;;;;;;;;;12.90;99.90;;;;;;5043650;28;19917;-70
2022/10/07 04:29:01;;;;;;;;;;;12.90;99.90;;;;;;5027598;28;20026;-70
2022/10/07 04:31:26;;;;;;;;;;;12.80;99.90;;;;;;5064345;28;20287;-70
2022/10/07 04:33:52;;;;;;;;;;;12.70;99.90;;;;;;5050469;28;20020;-70
2022/10/07 04:36:17;;;;;;;;;;;12.70;99.90;;;;;;5028019;28;19913;-70
2022/10/07 04:38:49;;;;;;;;;;;12.60;99.90;;;;;;5039598;28;19945;-70
2022/10/07 04:41:14;;;;;;;;;;;12.50;99.90;;;;;;5028832;28;19994;-70
2022/10/07 04:43:40;;;;;;;;;;;12.40;99.90;;;;;;5036359;28;19921;-70
2022/10/07 04:46:07;;;;;;;;;;;12.40;99.90;;;;;;5042785;28;19919;-70
2022/10/07 04:48:33;;;;;;;;;;;12.30;99.90;;;;;;5047835;28;20363;-70
2022/10/07 04:51:06;;;;;;;;;;;12.40;99.90;;;;;;5047933;28;19923;-70
2022/10/07 04:53:32;;;;;;;;;;;12.50;99.90;;;;;;5030882;28;20068;-70
2022/10/07 04:55:59;;;;;;;;;;;12.60;99.90;;;;;;5062558;28;19970;-70
2022/10/07 04:58:25;;;;;;;;;;;12.70;99.90;;;;;;5061928;28;19920;-69
2022/10/07 05:00:51;;;;;;;;;;;12.80;99.90;;;;;;5047429;28;20421;-70
2022/10/07 05:03:18;;;;;;;;;;;13.00;99.90;;;;;;5035185;28;20341;-70
2022/10/07 05:05:44;;;;;;;;;;;13.20;99.90;;;;;;5046580;28;19916;-70
2022/10/07 05:08:11;;;;;;;;;;;13.20;99.90;;;;;;5036209;28;19924;-70
2022/10/07 05:10:38;;;;;;;;;;;13.20;99.90;;;;;;5057761;28;19917;-70
2022/10/07 05:13:03;;;;;;;;;;;13.20;99.90;;;;;;5030528;28;19963;-70
2022/10/07 05:15:29;;;;;;;;;;;13.30;99.90;;;;;;5040209;28;19965;-70
2022/10/07 05:17:54;;;;;;;;;;;13.30;99.90;;;;;;5033636;28;19924;-70
2022/10/07 05:20:20;;;;;;;;;;;13.50;99.90;;;;;;5043582;28;20019;-70
2022/10/07 05:22:46;;;;;;;;;;;13.40;99.90;;;;;;5047398;28;19988;-70
2022/10/07 05:25:11;;;;;;;;;;;13.40;99.90;;;;;;5041853;28;20109;-70
2022/10/07 05:27:37;;;;;;;;;;;13.20;99.90;;;;;;5033663;28;19958;-70
2022/10/07 05:30:03;;;;;;;;;;;13.10;99.90;;;;;;5022499;28;19948;-70
2022/10/07 05:32:29;;;;;;;;;;;13.10;99.90;;;;;;5043340;28;20414;-70
2022/10/07 05:34:54;;;;;;;;;;;13.10;99.90;;;;;;5045783;28;20529;-70
2022/10/07 05:37:20;;;;;;;;;;;13.00;99.90;;;;;;5041900;28;19916;-70
2022/10/07 05:39:45;;;;;;;;;;;13.00;99.90;;;;;;5024658;28;20016;-70
2022/10/07 05:42:12;;;;;;;;;;;12.90;99.90;;;;;;5021855;28;19987;-70
2022/10/07 05:44:38;;;;;;;;;;;12.80;99.90;;;;;;5021441;28;20011;-70
2022/10/07 05:47:03;;;;;;;;;;;12.80;99.90;;;;;;5059983;28;19982;-69
2022/10/07 05:49:29;;;;;;;;;;;12.80;99.90;;;;;;5059301;28;20339;-70
2022/10/07 05:51:55;;;;;;;;;;;12.70;99.90;;;;;;5055422;28;19917;-70
2022/10/07 05:54:21;;;;;;;;;;;12.60;99.90;;;;;;5061153;28;19923;-70
2022/10/07 05:56:47;;;;;;;;;;;12.60;99.90;;;;;;5043889;28;20236;-70
2022/10/07 05:59:12;;;;;;;;;;;12.40;99.90;;;;;;5041223;28;19929;-70
2022/10/07 06:01:39;;;;;;;;;;;12.30;99.90;;;;;;5054677;28;20001;-70
2022/10/07 06:04:06;;;;;;;;;;;12.30;99.90;;;;;;5041914;28;20368;-70
2022/10/07 06:06:33;;;;;;;;;;;12.20;99.90;;;;;;5033978;28;19924;-70
2022/10/07 06:13:06;;;;;;;;;;;12.20;99.90;;;;;;5020945;28;19996;-69
2022/10/07 06:14:28;;;;;;;;;;;12.10;99.90;;;;;;5033017;28;19936;-70
2022/10/07 06:16:54;;;;;;;;;;;12.10;99.90;;;;;;5036493;28;19916;-70
2022/10/07 06:19:22;;;;;;;;;;;12.10;99.90;;;;;;5035775;28;19977;-70
2022/10/07 06:21:48;;;;;;;;;;;12.10;99.90;;;;;;5044518;28;19975;-71
2022/10/07 06:24:14;;;;;;;;;;;12.20;99.90;;;;;;5037316;28;20320;-71
2022/10/07 06:26:41;;;;;;;;;;;12.20;99.90;;;;;;5043045;28;20379;-71
2022/10/07 06:29:07;;;;;;;;;;;12.40;99.90;;;;;;5044519;28;19920;-71
2022/10/07 06:31:32;;;;;;;;;;;12.40;99.90;;;;;;5037535;28;19925;-71
2022/10/07 06:33:58;;;;;;;;;;;12.60;99.90;;;;;;5039033;28;19985;-71
2022/10/07 06:36:23;;;;;;;;;;;12.80;99.90;;;;;;5034184;28;19913;-71
2022/10/07 06:38:50;;;;;;;;;;;12.90;99.90;;;;;;5035045;28;19925;-71
2022/10/07 06:41:15;;;;;;;;;;;13.00;99.90;;;;;;5043055;28;20434;-71
2022/10/07 06:43:41;;;;;;;;;;;13.10;99.90;;;;;;5035309;28;19956;-71
2022/10/07 06:46:07;;;;;;;;;;;13.10;99.90;;;;;;5043382;28;20379;-71
2022/10/07 06:48:33;;;;;;;;;;;13.20;99.90;;;;;;5049691;28;19943;-71
2022/10/07 06:50:59;;;;;;;;;;;13.30;99.90;;;;;;5028743;28;20008;-72
2022/10/07 06:53:25;;;;;;;;;;;13.30;99.90;;;;;;5032418;28;20118;-71
2022/10/07 06:55:53;;;;;;;;;;;13.50;99.90;;;;;;5033317;28;19921;-71
2022/10/07 06:58:21;;;;;;;;;;;13.70;99.90;;;;;;5035306;28;19924;-71
2022/10/07 07:00:48;;;;;;;;;;;14.00;99.90;;;;;;5028084;28;19972;-71
2022/10/07 07:03:14;;;;;;;;;;;14.20;99.90;;;;;;5045399;28;20275;-71
2022/10/07 07:05:40;;;;;;;;;;;14.40;99.90;;;;;;5025029;28;20456;-71
2022/10/07 07:08:05;;;;;;;;;;;14.50;99.90;;;;;;5034051;28;19920;-72
2022/10/07 07:10:35;;;;;;;;;;;14.50;99.90;;;;;;5040328;28;19913;-72
2022/10/07 07:13:01;;;;;;;;;;;14.60;99.90;;;;;;5040591;28;19960;-71
2022/10/07 07:15:26;;;;;;;;;;;14.70;99.90;;;;;;5038579;28;19912;-71
2022/10/07 07:17:51;;;;;;;;;;;14.80;99.90;;;;;;5045119;28;19944;-71
2022/10/07 07:20:17;;;;;;;;;;;14.90;99.90;;;;;;5042730;28;20248;-71
2022/10/07 07:22:43;;;;;;;;;;;15.00;99.90;;;;;;5046632;28;19920;-71
2022/10/07 07:25:11;;;;;;;;;;;15.10;99.90;;;;;;5016089;28;19939;-71
2022/10/07 07:27:37;;;;;;;;;;;15.20;99.90;;;;;;5037529;28;19986;-71
2022/10/07 07:30:03;;;;;;;;;;;15.30;99.90;;;;;;5042465;28;19920;-71
2022/10/07 07:32:31;;;;;;;;;;;15.40;99.90;;;;;;5049289;28;19926;-71
2022/10/07 07:34:59;;;;;;;;;;;15.50;99.90;;;;;;5032135;28;19988;-71
2022/10/07 07:37:28;;;;;;;;;;;15.60;99.90;;;;;;5039747;28;19958;-71
2022/10/07 07:39:53;;;;;;;;;;;15.70;99.90;;;;;;5038808;28;20065;-71
2022/10/07 07:42:20;;;;;;;;;;;15.90;99.90;;;;;;5027961;28;19917;-72
2022/10/07 07:44:46;;;;;;;;;;;16.00;99.90;;;;;;5024460;28;20011;-72
2022/10/07 07:47:15;;;;;;;;;;;16.10;99.90;;;;;;5015563;28;20324;-71
2022/10/07 07:49:41;;;;;;;;;;;16.30;99.90;;;;;;5034446;28;19921;-71
2022/10/07 07:52:07;;;;;;;;;;;16.50;99.90;;;;;;5031952;28;20034;-71
2022/10/07 07:54:36;;;;;;;;;;;16.70;99.90;;;;;;5030740;28;19917;-71
2022/10/07 07:57:02;;;;;;;;;;;17.00;99.90;;;;;;5034309;28;20405;-72
2022/10/07 07:59:28;;;;;;;;;;;17.70;99.90;;;;;;5031422;28;19931;-71
2022/10/07 08:01:53;;;;;;;;;;;19.20;99.90;;;;;;5033939;28;19916;-72
2022/10/07 08:04:19;;;;;;;;;;;20.80;99.90;;;;;;5034659;28;20339;-71
2022/10/07 08:06:45;;;;;;;;;;;21.20;99.90;;;;;;5036627;28;20461;-71
2022/10/07 08:09:11;;;;;;;;;;;22.30;95.30;;;;;;5029058;28;19931;-71
2022/10/07 08:11:37;;;;;;;;;;;23.20;94.60;;;;;;5032558;28;20333;-72
2022/10/07 08:14:02;;;;;;;;;;;25.10;90.40;;;;;;5034284;28;19924;-72
2022/10/07 08:16:28;;;;;;;;;;;25.60;81.10;;;;;;5033139;28;19916;-72
2022/10/07 08:18:55;;;;;;;;;;;25.10;82.40;;;;;;5032828;28;19972;-71
2022/10/07 08:21:22;;;;;;;;;;;24.30;81.80;;;;;;5020680;28;19908;-72
2022/10/07 08:23:56;;;;;;;;;;;23.40;83.00;;;;;;5039144;28;19989;-71
2022/10/07 08:26:22;;;;;;;;;;;22.20;90.00;;;;;;5017923;28;19913;-71
2022/10/07 08:28:47;;;;;;;;;;;21.10;92.90;;;;;;5038489;28;19920;-72
2022/10/07 08:31:14;;;;;;;;;;;20.10;98.00;;;;;;5032657;28;19916;-71
2022/10/07 08:33:43;;;;;;;;;;;19.40;99.90;;;;;;5033464;28;19912;-71
2022/10/07 08:36:13;;;;;;;;;;;18.70;99.90;;;;;;5037287;28;19912;-70
2022/10/07 08:38:39;;;;;;;;;;;18.10;99.90;;;;;;5038835;28;20099;-70
2022/10/07 08:41:08;;;;;;;;;;;17.90;99.90;;;;;;5038147;28;20094;-70
2022/10/07 08:43:35;;;;;;;;;;;17.70;99.90;;;;;;5037568;28;19921;-70
2022/10/07 08:46:03;;;;;;;;;;;17.50;99.90;;;;;;5025151;28;19909;-71
2022/10/07 08:48:31;;;;;;;;;;;17.40;99.90;;;;;;5018850;28;20295;-71
2022/10/07 08:51:19;;;;;;;;;;;17.30;99.90;;;;;;5041041;28;20390;-70
2022/10/07 08:53:47;;;;;;;;;;;17.40;99.90;;;;;;5036736;28;19917;-70
2022/10/07 08:56:16;;;;;;;;;;;18.30;99.90;;;;;;5041838;28;20442;-70
2022/10/07 08:58:44;;;;;;;;;;;18.80;99.90;;;;;;5040830;28;20377;-71
2022/10/07 09:01:23;;;;;;;;;;;19.00;99.90;;;;;;5023169;28;19944;-70
2022/10/07 09:04:07;;;;;;;;;;;19.10;99.90;;;;;;5036821;28;19953;-71
2022/10/07 09:06:44;;;;;;;;;;;19.20;99.90;;;;;;5040736;28;19919;-70
2022/10/07 09:09:19;;;;;;;;;;;19.00;99.90;;;;;;5046817;28;19974;-70
2022/10/07 09:11:45;;;;;;;;;;;18.50;99.90;;;;;;5041977;28;19944;-70
2022/10/07 09:14:23;;;;;;;;;;;17.90;99.90;;;;;;5040985;28;19912;-70
2022/10/07 09:16:50;;;;;;;;;;;17.50;99.90;;;;;;5035005;28;20314;-70
2022/10/07 09:19:19;;;;;;;;;;;17.00;99.90;;;;;;5026638;28;19921;-70
2022/10/07 09:21:47;;;;;;;;;;;16.80;99.90;;;;;;5021064;28;19970;-70
2022/10/07 09:24:15;;;;;;;;;;;16.70;99.90;;;;;;5022749;28;19953;-70
2022/10/07 09:26:41;;;;;;;;;;;16.70;99.90;;;;;;5022320;28;19913;-71
2022/10/07 09:29:07;;;;;;;;;;;17.40;99.90;;;;;;5022429;28;20280;-70
2022/10/07 09:31:33;;;;;;;;;;;18.80;99.90;;;;;;5021922;28;19920;-71
2022/10/07 09:33:59;;;;;;;;;;;19.80;99.90;;;;;;5029250;28;19944;-70
2022/10/07 09:36:25;;;;;;;;;;;20.20;99.90;;;;;;5039468;28;19951;-71
2022/10/07 09:38:52;;;;;;;;;;;20.50;99.90;;;;;;5041427;28;20068;-70
2022/10/07 09:41:37;;;;;;;;;;;20.90;99.90;;;;;;5041148;28;20399;-71
2022/10/07 09:44:25;;;;;;;;;;;21.40;99.90;;;;;;5039150;28;19912;-70
2022/10/07 09:46:52;;;;;;;;;;;21.00;99.90;;;;;;5062039;28;19958;-70
2022/10/07 09:49:26;;;;;;;;;;;20.10;99.90;;;;;;5054900;28;19963;-71
2022/10/07 09:52:05;;;;;;;;;;;19.40;99.90;;;;;;5021826;28;19917;-71
2022/10/07 09:54:32;;;;;;;;;;;19.20;99.90;;;;;;5028708;28;20334;-70
2022/10/07 09:56:59;;;;;;;;;;;18.90;99.90;;;;;;5039723;28;20022;-71
2022/10/07 09:59:27;;;;;;;;;;;18.70;99.90;;;;;;5041713;28;19924;-70
2022/10/07 10:01:56;;;;;;;;;;;18.70;99.90;;;;;;5041626;28;19944;-70
2022/10/07 10:04:45;;;;;;;;;;;18.70;99.90;;;;;;5041832;28;19914;-70
2022/10/07 10:07:23;;;;;;;;;;;18.90;99.90;;;;;;5015694;28;19913;-70
2022/10/07 10:10:09;;;;;;;;;;;19.30;99.90;;;;;;5024365;28;19921;-70
2022/10/07 10:12:43;;;;;;;;;;;19.60;99.90;;;;;;5049020;28;19919;-70
2022/10/07 10:15:31;;;;;;;;;;;20.10;99.90;;;;;;5043056;28;19931;-70
2022/10/07 10:17:57;;;;;;;;;;;20.60;98.50;;;;;;5020221;28;20352;-71
2022/10/07 10:20:22;;;;;;;;;;;21.20;98.50;;;;;;5035582;28;19912;-70
2022/10/07 10:22:48;;;;;;;;;;;21.70;94.50;;;;;;5053240;28;19916;-70
2022/10/07 10:28:13;;;;;;;;;;;21.40;93.70;;;;;;5021763;28;19928;-71
2022/10/07 10:30:46;;;;;;;;;;;20.80;98.10;;;;;;5021613;28;19909;-70
2022/10/07 10:33:13;;;;;;;;;;;20.10;99.20;;;;;;5021214;28;19917;-70
2022/10/07 10:35:52;;;;;;;;;;;19.50;99.90;;;;;;5021124;28;19909;-70
2022/10/07 10:38:32;;;;;;;;;;;19.10;99.90;;;;;;5034532;28;19957;-71
2022/10/07 10:41:02;;;;;;;;;;;18.80;99.90;;;;;;5021845;28;20779;-71
2022/10/07 10:43:31;;;;;;;;;;;18.80;99.90;;;;;;5024602;28;19919;-70
2022/10/07 10:45:56;;;;;;;;;;;18.90;99.90;;;;;;5040692;28;19983;-70
2022/10/07 10:48:28;;;;;;;;;;;18.80;99.90;;;;;;5040725;28;20364;-70
2022/10/07 10:50:58;;;;;;;;;;;18.70;99.90;;;;;;5039933;28;19936;-71
2022/10/07 10:53:43;;;;;;;;;;;18.90;99.90;;;;;;5060524;28;20435;-71
2022/10/07 10:56:08;;;;;;;;;;;19.10;99.90;;;;;;5035241;28;19916;-70
2022/10/07 10:58:56;;;;;;;;;;;20.40;98.30;;;;;;5019823;28;19921;-71
2022/10/07 11:01:33;;;;;;;;;;;21.00;94.10;;;;;;5013920;28;19995;-70
2022/10/07 11:04:17;;;;;;;;;;;20.90;91.50;;;;;;5020519;28;20026;-69
2022/10/07 11:06:45;;;;;;;;;;;20.10;91.80;;;;;;5039828;28;19912;-70
2022/10/07 11:09:15;;;;;;;;;;;19.30;95.40;;;;;;5020785;28;20370;-70
2022/10/07 11:11:42;;;;;;;;;;;19.00;96.60;;;;;;5020675;28;19912;-70
2022/10/07 11:14:19;;;;;;;;;;;19.00;98.80;;;;;;5037283;28;19958;-71
2022/10/07 11:16:48;;;;;;;;;;;19.20;99.90;;;;;;5020632;28;19908;-70
2022/10/07 11:19:14;;;;;;;;;;;19.40;99.90;;;;;;5002833;28;20421;-70
2022/10/07 11:21:49;;;;;;;;;;;19.90;99.90;;;;;;5044265;28;20295;-71
2022/10/07 11:24:15;;;;;;;;;;;20.20;99.90;;;;;;5039512;28;20474;-70
2022/10/07 11:26:41;;;;;;;;;;;20.40;98.40;;;;;;5057143;28;19912;-70
2022/10/07 11:29:24;;;;;;;;;;;20.60;98.70;;;;;;5060028;28;19954;-70
2022/10/07 11:31:55;;;;;;;;;;;20.60;97.50;;;;;;5022437;28;19914;-70
2022/10/07 11:34:23;;;;;;;;;;;20.60;99.90;;;;;;5019014;28;19912;-70
2022/10/07 11:37:02;;;;;;;;;;;20.60;99.20;;;;;;5020549;28;20399;-71
2022/10/07 11:39:28;;;;;;;;;;;20.50;98.60;;;;;;5020350;28;20365;-70
2022/10/07 11:42:01;;;;;;;;;;;20.00;99.90;;;;;;5050335;28;19916;-70
2022/10/07 11:44:59;;;;;;;;;;;19.80;99.90;;;;;;5018888;28;19985;-70
2022/10/07 11:47:26;;;;;;;;;;;19.60;99.90;;;;;;5004024;28;19988;-70
2022/10/07 11:50:13;;;;;;;;;;;19.40;99.90;;;;;;5046793;28;20306;-70
2022/10/07 11:52:40;;;;;;;;;;;19.00;99.90;;;;;;5045978;28;19954;-70
2022/10/07 11:55:10;;;;;;;;;;;18.80;99.90;;;;;;5039891;28;20080;-71
2022/10/07 11:57:39;;;;;;;;;;;18.90;99.90;;;;;;5021091;28;19913;-70
2022/10/07 12:00:07;;;;;;;;;;;18.80;99.90;;;;;;5023897;28;19999;-70
2022/10/07 12:02:40;;;;;;;;;;;18.70;99.90;;;;;;5023927;28;19909;-71
2022/10/07 12:05:25;;;;;;;;;;;18.50;99.90;;;;;;5024955;28;20329;-71
2022/10/07 12:07:56;;;;;;;;;;;18.70;99.90;;;;;;5024015;28;19913;-71
2022/10/07 12:10:23;;;;;;;;;;;19.30;99.90;;;;;;5007240;28;19920;-70
2022/10/07 12:12:51;;;;;;;;;;;19.70;99.90;;;;;;5028614;28;19920;-70
2022/10/07 12:15:40;;;;;;;;;;;19.80;99.90;;;;;;5063853;28;20346;-71
2022/10/07 12:18:06;;;;;;;;;;;19.50;99.90;;;;;;5063313;28;19915;-70
2022/10/07 12:20:41;;;;;;;;;;;19.20;99.90;;;;;;5049307;28;19912;-70
2022/10/07 12:23:19;;;;;;;;;;;18.80;99.90;;;;;;5024147;28;19966;-70
2022/10/07 12:25:51;;;;;;;;;;;18.70;99.90;;;;;;3638238;28;10020727;-70
2022/10/07 12:28:23;;;;;;;;;;;18.90;99.90;;;;;;5040060;28;20456;-71
2022/10/07 12:30:49;;;;;;;;;;;19.30;99.90;;;;;;5028066;28;20356;-70
2022/10/07 12:33:24;;;;;;;;;;;19.70;99.90;;;;;;5052079;28;20454;-71
2022/10/07 12:35:49;;;;;;;;;;;20.30;99.90;;;;;;5044991;28;19916;-71
2022/10/07 12:38:17;;;;;;;;;;;20.60;99.90;;;;;;5041820;28;19916;-71
2022/10/07 12:40:52;;;;;;;;;;;20.80;99.90;;;;;;5042373;28;19944;-71
2022/10/07 12:43:24;;;;;;;;;;;21.00;99.90;;;;;;5043195;28;19957;-71
2022/10/07 12:45:50;;;;;;;;;;;21.30;99.90;;;;;;5009151;28;19916;-71
2022/10/07 12:48:19;;;;;;;;;;;21.50;99.90;;;;;;5046173;28;19920;-70
2022/10/07 12:50:46;;;;;;;;;;;21.40;99.60;;;;;;5028613;28;19909;-71
2022/10/07 12:53:12;;;;;;;;;;;21.30;97.20;;;;;;5043900;28;20024;-72
2022/10/07 12:55:39;;;;;;;;;;;21.10;97.10;;;;;;5026076;28;19911;-71
2022/10/07 13:01:13;;;;;;;;;;;20.60;97.00;;;;;;5044441;28;19915;-70
2022/10/07 13:03:38;;;;;;;;;;;20.40;98.20;;;;;;5044995;28;19923;-71
2022/10/07 13:06:10;;;;;;;;;;;20.30;97.00;;;;;;5063258;28;19930;-71
2022/10/07 13:08:44;;;;;;;;;;;20.50;99.90;;;;;;5058170;28;19991;-71
2022/10/07 13:11:29;;;;;;;;;;;20.80;98.90;;;;;;5024324;28;20272;-71
2022/10/07 13:14:01;;;;;;;;;;;20.80;97.20;;;;;;5046780;28;19913;-71
2022/10/07 13:16:40;;;;;;;;;;;20.50;95.70;;;;;;5060344;28;20050;-70
2022/10/07 13:19:25;;;;;;;;;;;20.40;99.40;;;;;;5063053;28;19920;-72
2022/10/07 13:21:56;;;;;;;;;;;20.60;96.50;;;;;;5026593;28;19919;-71
2022/10/07 13:24:23;;;;;;;;;;;20.70;99.20;;;;;;5062407;28;20285;-70
2022/10/07 13:26:49;;;;;;;;;;;20.70;98.20;;;;;;5062953;28;19908;-70
2022/10/07 13:29:21;;;;;;;;;;;20.80;97.70;;;;;;5062754;28;19990;-71
2022/10/07 13:32:11;;;;;;;;;;;20.70;98.00;;;;;;5031180;28;19913;-70
2022/10/07 13:34:37;;;;;;;;;;;20.30;97.30;;;;;;5022586;28;19931;-70
2022/10/07 13:37:22;;;;;;;;;;;20.50;99.00;;;;;;5028185;28;20368;-71
2022/10/07 13:39:48;;;;;;;;;;;20.80;99.60;;;;;;5031440;28;20031;-70
2022/10/07 13:42:13;;;;;;;;;;;20.40;96.50;;;;;;5034682;28;19996;-71
2022/10/07 13:44:41;;;;;;;;;;;20.50;99.60;;;;;;5035492;28;20019;-70
2022/10/07 13:47:08;;;;;;;;;;;20.50;98.10;;;;;;5023629;28;20308;-71
2022/10/07 13:49:37;;;;;;;;;;;20.20;96.90;;;;;;5022049;28;20263;-71
2022/10/07 13:52:05;;;;;;;;;;;20.10;99.90;;;;;;5022211;28;19932;-71
2022/10/07 13:54:31;;;;;;;;;;;20.20;99.50;;;;;;5039245;28;20343;-71
2022/10/07 13:56:58;;;;;;;;;;;20.10;98.40;;;;;;5060684;28;20445;-70
2022/10/07 13:59:23;;;;;;;;;;;19.90;99.90;;;;;;5022411;28;20179;-71
2022/10/07 14:01:51;;;;;;;;;;;19.80;97.60;;;;;;5022004;28;20498;-71
2022/10/07 14:04:18;;;;;;;;;;;19.80;99.90;;;;;;5020923;28;20399;-71
2022/10/07 14:06:47;;;;;;;;;;;19.70;99.50;;;;;;5049459;28;19954;-71
2022/10/07 14:09:20;;;;;;;;;;;20.00;99.90;;;;;;5057398;28;20371;-70
2022/10/07 14:11:49;;;;;;;;;;;20.10;97.60;;;;;;5023864;28;20237;-71
2022/10/07 14:14:17;;;;;;;;;;;20.20;98.50;;;;;;5033175;28;19920;-71
2022/10/07 14:16:44;;;;;;;;;;;20.30;96.60;;;;;;5042245;28;20293;-71
2022/10/07 14:19:19;;;;;;;;;;;20.20;97.50;;;;;;5044201;28;19917;-71
2022/10/07 14:21:45;;;;;;;;;;;20.10;97.40;;;;;;5015674;28;19917;-72
2022/10/07 14:24:14;;;;;;;;;;;19.90;97.40;;;;;;5034999;28;19912;-70
2022/10/07 14:26:43;;;;;;;;;;;19.70;96.90;;;;;;5039908;28;19931;-70
2022/10/07 14:29:27;;;;;;;;;;;19.60;99.90;;;;;;5041169;28;20006;-70
2022/10/07 14:35:17;;;;;;;;;;;19.30;98.60;;;;;;5010572;28;19913;-70
2022/10/07 14:37:42;;;;;;;;;;;19.40;99.70;;;;;;5034009;28;20289;-70
2022/10/07 14:40:17;;;;;;;;;;;19.30;99.60;;;;;;5020409;28;20007;-71